createdAt,value
2023-01-29T00:00:25.524Z,45.80
2023-01-29T00:01:25.496Z,46.80
2023-01-29T00:02:25.534Z,46.10
2023-01-29T00:03:25.515Z,46.50
2023-01-29T00:04:25.472Z,47.60
2023-01-29T00:05:28.348Z,46.60
2023-01-29T00:06:25.465Z,47.50
2023-01-29T00:07:25.440Z,45.10
2023-01-29T00:08:25.435Z,45.60
2023-01-29T00:09:25.421Z,47.80
2023-01-29T00:10:25.413Z,46.50
2023-01-29T00:11:25.408Z,47.80
2023-01-29T00:12:25.382Z,47.50
2023-01-29T00:13:25.387Z,48.00
2023-01-29T00:14:25.397Z,47.60
2023-01-29T00:15:25.443Z,46.80
2023-01-29T00:16:25.344Z,45.60
2023-01-29T00:17:25.348Z,46.90
2023-01-29T00:18:25.335Z,45.20
2023-01-29T00:19:25.333Z,45.70
2023-01-29T00:20:25.293Z,46.30
2023-01-29T00:21:25.284Z,46.00
2023-01-29T00:22:25.329Z,45.50
2023-01-29T00:23:25.280Z,47.20
2023-01-29T00:24:25.336Z,47.30
2023-01-29T00:25:25.254Z,46.10
2023-01-29T00:26:25.246Z,45.90
2023-01-29T00:27:25.214Z,47.20
2023-01-29T00:28:25.215Z,46.30
2023-01-29T00:29:25.214Z,45.40
2023-01-29T00:30:25.201Z,45.90
2023-01-29T00:31:25.380Z,46.40
2023-01-29T00:32:25.182Z,44.50
2023-01-29T00:33:25.153Z,45.00
2023-01-29T00:34:25.157Z,44.60
2023-01-29T00:35:25.137Z,44.90
2023-01-29T00:36:25.124Z,46.00
2023-01-29T00:37:25.114Z,46.90
2023-01-29T00:38:25.110Z,47.50
2023-01-29T00:39:33.627Z,47.60
2023-01-29T00:40:26.087Z,46.70
2023-01-29T00:41:25.074Z,47.20
2023-01-29T00:42:25.076Z,47.10
2023-01-29T00:43:25.055Z,45.60
2023-01-29T00:44:25.059Z,46.90
2023-01-29T00:45:25.024Z,45.00
2023-01-29T00:46:25.040Z,44.20
2023-01-29T00:47:25.039Z,44.50
2023-01-29T00:48:25.003Z,44.60
2023-01-29T00:49:25.016Z,44.10
2023-01-29T00:50:24.983Z,45.10
2023-01-29T00:51:24.966Z,44.70
2023-01-29T00:52:24.987Z,43.70
2023-01-29T00:53:24.987Z,45.80
2023-01-29T00:54:24.943Z,45.90
2023-01-29T00:55:24.931Z,44.90
2023-01-29T00:56:24.915Z,44.50
2023-01-29T00:57:24.908Z,43.70
2023-01-29T00:58:24.883Z,45.80
2023-01-29T00:59:24.895Z,45.00
2023-01-29T01:00:24.897Z,45.30
2023-01-29T01:01:24.867Z,44.70
2023-01-29T01:02:24.896Z,45.60
2023-01-29T01:03:24.858Z,45.80
2023-01-29T01:04:24.849Z,45.20
2023-01-29T01:05:24.826Z,44.20
2023-01-29T01:06:24.817Z,43.60
2023-01-29T01:07:24.813Z,43.60
2023-01-29T01:08:24.825Z,44.40
2023-01-29T01:09:24.804Z,44.40
2023-01-29T01:10:24.782Z,44.10
2023-01-29T01:11:24.784Z,43.10
2023-01-29T01:12:24.768Z,44.60
2023-01-29T01:13:24.752Z,42.80
2023-01-29T01:14:24.735Z,41.10
2023-01-29T01:15:24.738Z,41.00
2023-01-29T01:16:24.772Z,41.80
2023-01-29T01:17:24.724Z,41.10
2023-01-29T01:18:24.697Z,41.10
2023-01-29T01:19:24.707Z,40.80
2023-01-29T01:20:24.670Z,39.70
2023-01-29T01:21:24.675Z,39.70
2023-01-29T01:22:24.650Z,39.20
2023-01-29T01:23:24.643Z,38.40
2023-01-29T01:24:24.662Z,38.30
2023-01-29T01:25:24.638Z,37.80
2023-01-29T01:26:24.640Z,38.40
2023-01-29T01:27:24.606Z,38.70
2023-01-29T01:28:24.606Z,39.00
2023-01-29T01:29:24.596Z,38.80
2023-01-29T01:30:24.574Z,38.90
2023-01-29T01:31:24.709Z,37.90
2023-01-29T01:32:24.561Z,38.00
2023-01-29T01:33:24.546Z,39.00
2023-01-29T01:34:24.533Z,38.20
2023-01-29T01:35:24.525Z,40.40
2023-01-29T01:36:24.515Z,39.30
2023-01-29T01:37:24.503Z,38.20
2023-01-29T01:38:24.496Z,38.70
2023-01-29T01:39:24.491Z,38.90
2023-01-29T01:40:24.502Z,38.80
2023-01-29T01:41:24.457Z,38.40
2023-01-29T01:42:24.433Z,37.70
2023-01-29T01:43:24.447Z,39.40
2023-01-29T01:44:24.433Z,39.30
2023-01-29T01:45:24.416Z,37.70
2023-01-29T01:46:24.426Z,37.00
2023-01-29T01:47:24.403Z,37.70
2023-01-29T01:48:24.383Z,36.90
2023-01-29T01:49:24.398Z,36.20
2023-01-29T01:50:24.366Z,37.10
2023-01-29T01:51:24.360Z,36.90
2023-01-29T01:52:24.373Z,37.00
2023-01-29T01:53:24.351Z,36.50
2023-01-29T01:54:24.343Z,35.90
2023-01-29T01:55:24.329Z,36.40
2023-01-29T01:56:24.303Z,35.70
2023-01-29T01:57:24.285Z,35.70
2023-01-29T01:58:24.286Z,35.10
2023-01-29T01:59:24.302Z,35.80
2023-01-29T02:00:24.265Z,37.40
2023-01-29T02:01:25.755Z,36.30
2023-01-29T02:02:24.297Z,35.60
2023-01-29T02:03:24.225Z,36.80
2023-01-29T02:04:24.236Z,35.40
2023-01-29T02:05:24.221Z,35.70
2023-01-29T02:06:24.203Z,36.80
2023-01-29T02:07:24.194Z,37.00
2023-01-29T02:08:24.233Z,35.90
2023-01-29T02:09:24.183Z,36.80
2023-01-29T02:10:24.164Z,38.00
2023-01-29T02:11:24.155Z,36.50
2023-01-29T02:12:24.135Z,37.80
2023-01-29T02:13:24.133Z,36.90
2023-01-29T02:14:24.133Z,35.90
2023-01-29T02:15:24.106Z,37.00
2023-01-29T02:16:24.101Z,35.30
2023-01-29T02:17:24.172Z,37.60
2023-01-29T02:18:24.093Z,35.30
2023-01-29T02:19:24.119Z,36.80
2023-01-29T02:20:24.061Z,35.90
2023-01-29T02:21:24.048Z,35.30
2023-01-29T02:22:24.059Z,35.40
2023-01-29T02:23:24.034Z,34.30
2023-01-29T02:24:24.065Z,34.60
2023-01-29T02:25:24.031Z,34.80
2023-01-29T02:26:23.994Z,34.90
2023-01-29T02:27:23.981Z,34.70
2023-01-29T02:28:23.988Z,35.10
2023-01-29T02:29:23.984Z,34.70
2023-01-29T02:30:23.962Z,33.80
2023-01-29T02:31:24.027Z,34.50
2023-01-29T02:32:23.988Z,34.50
2023-01-29T02:33:23.943Z,32.40
2023-01-29T02:34:23.931Z,34.10
2023-01-29T02:35:23.914Z,33.00
2023-01-29T02:36:23.892Z,32.60
2023-01-29T02:37:23.895Z,33.30
2023-01-29T02:38:23.922Z,33.50
2023-01-29T02:39:23.889Z,34.00
2023-01-29T02:40:23.867Z,33.60
2023-01-29T02:41:23.855Z,35.60
2023-01-29T02:42:23.822Z,33.90
2023-01-29T02:43:23.833Z,32.40
2023-01-29T02:44:23.823Z,33.70
2023-01-29T02:45:23.814Z,33.20
2023-01-29T02:46:23.827Z,32.70
2023-01-29T02:47:23.797Z,33.90
2023-01-29T02:48:23.781Z,32.70
2023-01-29T02:49:23.806Z,33.60
2023-01-29T02:50:23.757Z,32.80
2023-01-29T02:51:23.748Z,33.00
2023-01-29T02:52:23.739Z,33.90
2023-01-29T02:53:23.723Z,33.70
2023-01-29T02:54:23.714Z,33.70
2023-01-29T02:55:23.717Z,32.60
2023-01-29T02:56:23.692Z,34.20
2023-01-29T02:57:23.685Z,34.50
2023-01-29T02:58:23.673Z,34.10
2023-01-29T02:59:23.691Z,33.80
2023-01-29T03:00:23.648Z,33.00
2023-01-29T03:01:23.734Z,34.40
2023-01-29T03:02:23.712Z,34.00
2023-01-29T03:03:23.665Z,33.20
2023-01-29T03:04:23.756Z,33.20
2023-01-29T03:05:23.812Z,34.90
2023-01-29T03:06:24.197Z,33.50
2023-01-29T03:07:23.581Z,34.20
2023-01-29T03:08:23.571Z,34.20
2023-01-29T03:09:23.575Z,33.90
2023-01-29T03:10:23.545Z,34.30
2023-01-29T03:11:23.551Z,33.30
2023-01-29T03:12:23.523Z,33.70
2023-01-29T03:13:23.529Z,33.40
2023-01-29T03:14:23.521Z,33.70
2023-01-29T03:15:23.501Z,34.40
2023-01-29T03:16:23.554Z,33.90
2023-01-29T03:17:23.481Z,34.20
2023-01-29T03:18:23.464Z,34.50
2023-01-29T03:19:23.489Z,34.00
2023-01-29T03:20:23.458Z,35.40
2023-01-29T03:21:23.447Z,33.30
2023-01-29T03:22:23.479Z,33.50
2023-01-29T03:23:23.440Z,33.20
2023-01-29T03:24:23.455Z,33.50
2023-01-29T03:25:23.434Z,34.40
2023-01-29T03:26:23.388Z,33.60
2023-01-29T03:27:23.391Z,33.40
2023-01-29T03:28:23.371Z,34.00
2023-01-29T03:29:23.380Z,32.50
2023-01-29T03:30:23.348Z,32.60
2023-01-29T03:31:23.496Z,32.90
2023-01-29T03:32:23.340Z,33.10
2023-01-29T03:33:23.331Z,34.10
2023-01-29T03:34:23.322Z,33.20
2023-01-29T03:35:23.300Z,33.00
2023-01-29T03:36:23.280Z,32.90
2023-01-29T03:37:23.285Z,32.30
2023-01-29T03:38:23.269Z,32.60
2023-01-29T03:39:23.270Z,32.90
2023-01-29T03:40:23.242Z,32.20
2023-01-29T03:41:23.255Z,33.30
2023-01-29T03:42:23.221Z,33.10
2023-01-29T03:43:23.259Z,33.30
2023-01-29T03:44:23.235Z,33.20
2023-01-29T03:45:23.203Z,33.60
2023-01-29T03:46:23.195Z,33.70
2023-01-29T03:47:23.183Z,33.80
2023-01-29T03:48:23.163Z,32.40
2023-01-29T03:49:23.161Z,31.80
2023-01-29T03:50:23.151Z,31.90
2023-01-29T03:51:23.131Z,32.40
2023-01-29T03:52:23.128Z,32.80
2023-01-29T03:53:23.121Z,31.10
2023-01-29T03:54:23.119Z,32.00
2023-01-29T03:55:23.107Z,32.30
2023-01-29T03:56:23.089Z,33.00
2023-01-29T03:57:23.105Z,31.10
2023-01-29T03:58:23.070Z,32.30
2023-01-29T03:59:23.072Z,32.40
2023-01-29T04:00:23.043Z,32.90
2023-01-29T04:01:23.089Z,32.20
2023-01-29T04:02:23.030Z,31.80
2023-01-29T04:03:23.019Z,32.30
2023-01-29T04:04:23.113Z,32.30
2023-01-29T04:05:22.999Z,32.70
2023-01-29T04:06:22.989Z,33.90
2023-01-29T04:07:22.972Z,32.60
2023-01-29T04:08:22.970Z,31.50
2023-01-29T04:09:22.961Z,33.00
2023-01-29T04:10:22.960Z,32.50
2023-01-29T04:11:23.008Z,32.60
2023-01-29T04:12:23.012Z,31.80
2023-01-29T04:13:22.981Z,31.30
2023-01-29T04:14:22.920Z,32.40
2023-01-29T04:15:22.950Z,33.50
2023-01-29T04:16:22.916Z,31.40
2023-01-29T04:17:22.939Z,32.80
2023-01-29T04:18:22.868Z,32.20
2023-01-29T04:19:22.895Z,31.40
2023-01-29T04:20:22.867Z,32.20
2023-01-29T04:21:22.950Z,31.90
2023-01-29T04:22:22.968Z,31.70
2023-01-29T04:23:22.850Z,31.70
2023-01-29T04:24:22.879Z,31.00
2023-01-29T04:25:22.853Z,31.70
2023-01-29T04:26:22.781Z,30.80
2023-01-29T04:27:22.781Z,31.70
2023-01-29T04:28:22.770Z,31.40
2023-01-29T04:29:22.762Z,31.50
2023-01-29T04:30:22.790Z,32.80
2023-01-29T04:31:22.972Z,32.60
2023-01-29T04:32:22.801Z,31.80
2023-01-29T04:33:22.744Z,31.10
2023-01-29T04:34:22.858Z,31.50
2023-01-29T04:35:22.769Z,31.10
2023-01-29T04:36:22.709Z,33.80
2023-01-29T04:37:22.668Z,32.50
2023-01-29T04:38:22.767Z,32.80
2023-01-29T04:39:22.775Z,34.80
2023-01-29T04:40:22.688Z,33.20
2023-01-29T04:41:22.628Z,34.20
2023-01-29T04:42:22.619Z,35.40
2023-01-29T04:43:22.607Z,33.70
2023-01-29T04:44:22.618Z,34.40
2023-01-29T04:45:22.587Z,33.50
2023-01-29T04:46:22.749Z,34.60
2023-01-29T04:47:22.710Z,35.30
2023-01-29T04:48:22.631Z,34.50
2023-01-29T04:49:22.561Z,33.70
2023-01-29T04:50:22.542Z,34.40
2023-01-29T04:51:22.586Z,33.30
2023-01-29T04:52:22.527Z,32.00
2023-01-29T04:53:22.539Z,33.50
2023-01-29T04:54:22.524Z,32.70
2023-01-29T04:55:22.574Z,32.40
2023-01-29T04:56:22.557Z,31.50
2023-01-29T04:57:22.459Z,32.30
2023-01-29T04:58:22.489Z,30.40
2023-01-29T04:59:22.456Z,30.70
2023-01-29T05:00:22.429Z,30.30
2023-01-29T05:01:22.447Z,30.40
2023-01-29T05:02:22.424Z,30.40
2023-01-29T05:03:22.422Z,30.80
2023-01-29T05:04:22.411Z,29.10
2023-01-29T05:05:22.387Z,30.10
2023-01-29T05:06:22.379Z,29.60
2023-01-29T05:07:22.369Z,30.20
2023-01-29T05:08:22.417Z,27.70
2023-01-29T05:09:22.391Z,30.00
2023-01-29T05:10:22.355Z,29.00
2023-01-29T05:11:22.349Z,29.90
2023-01-29T05:12:22.311Z,29.40
2023-01-29T05:13:22.317Z,29.90
2023-01-29T05:14:22.317Z,30.80
2023-01-29T05:15:22.284Z,30.50
2023-01-29T05:16:22.343Z,30.10
2023-01-29T05:17:22.271Z,29.90
2023-01-29T05:18:22.259Z,30.50
2023-01-29T05:19:22.290Z,29.90
2023-01-29T05:20:22.228Z,29.90
2023-01-29T05:21:22.217Z,30.00
2023-01-29T05:22:22.229Z,30.20
2023-01-29T05:23:22.207Z,29.50
2023-01-29T05:24:22.260Z,31.10
2023-01-29T05:25:22.186Z,30.10
2023-01-29T05:26:22.182Z,30.30
2023-01-29T05:27:22.152Z,29.90
2023-01-29T05:28:22.168Z,30.10
2023-01-29T05:29:22.185Z,31.00
2023-01-29T05:30:22.128Z,31.50
2023-01-29T05:31:22.177Z,30.70
2023-01-29T05:32:22.121Z,32.10
2023-01-29T05:33:22.098Z,32.50
2023-01-29T05:34:22.108Z,34.60
2023-01-29T05:35:22.081Z,36.60
2023-01-29T05:36:22.068Z,35.70
2023-01-29T05:37:22.059Z,36.40
2023-01-29T05:38:22.055Z,37.80
2023-01-29T05:39:22.038Z,38.00
2023-01-29T05:40:22.028Z,37.90
2023-01-29T05:41:22.017Z,39.10
2023-01-29T05:42:22.018Z,37.40
2023-01-29T05:43:21.989Z,37.30
2023-01-29T05:44:21.999Z,39.10
2023-01-29T05:45:21.968Z,38.20
2023-01-29T05:46:22.019Z,37.30
2023-01-29T05:47:21.957Z,39.10
2023-01-29T05:48:21.953Z,38.80
2023-01-29T05:49:21.948Z,38.60
2023-01-29T05:50:21.941Z,38.60
2023-01-29T05:51:21.907Z,40.00
2023-01-29T05:52:21.911Z,39.90
2023-01-29T05:53:21.890Z,39.30
2023-01-29T05:54:21.889Z,40.40
2023-01-29T05:55:21.867Z,39.50
2023-01-29T05:56:21.867Z,38.10
2023-01-29T05:57:21.849Z,40.10
2023-01-29T05:58:21.838Z,39.70
2023-01-29T05:59:21.839Z,38.20
2023-01-29T06:00:21.820Z,39.30
2023-01-29T06:01:21.814Z,41.40
2023-01-29T06:02:21.807Z,39.00
2023-01-29T06:03:21.789Z,40.10
2023-01-29T06:04:21.808Z,39.50
2023-01-29T06:05:21.782Z,40.50
2023-01-29T06:06:21.767Z,39.80
2023-01-29T06:07:21.749Z,38.70
2023-01-29T06:08:21.743Z,40.80
2023-01-29T06:09:21.757Z,38.30
2023-01-29T06:10:21.720Z,39.10
2023-01-29T06:11:21.717Z,38.10
2023-01-29T06:12:21.687Z,39.40
2023-01-29T06:13:23.653Z,39.50
2023-01-29T06:14:21.681Z,39.70
2023-01-29T06:15:21.667Z,38.00
2023-01-29T06:16:21.716Z,38.10
2023-01-29T06:17:21.648Z,39.70
2023-01-29T06:18:21.635Z,39.10
2023-01-29T06:19:21.698Z,40.20
2023-01-29T06:20:21.611Z,39.10
2023-01-29T06:21:21.605Z,39.90
2023-01-29T06:22:21.595Z,39.40
2023-01-29T06:23:21.588Z,39.00
2023-01-29T06:24:21.600Z,39.60
2023-01-29T06:25:21.579Z,38.90
2023-01-29T06:26:21.563Z,40.00
2023-01-29T06:27:21.537Z,41.00
2023-01-29T06:28:21.538Z,42.00
2023-01-29T06:29:21.537Z,39.70
2023-01-29T06:30:21.517Z,41.50
2023-01-29T06:31:37.362Z,43.10
2023-01-29T06:32:22.557Z,45.80
2023-01-29T06:33:21.506Z,46.90
2023-01-29T06:34:21.484Z,44.90
2023-01-29T06:35:21.502Z,42.70
2023-01-29T06:36:21.446Z,43.70
2023-01-29T06:37:21.447Z,43.20
2023-01-29T06:38:21.427Z,42.80
2023-01-29T06:39:21.437Z,42.50
2023-01-29T06:40:21.411Z,40.90
2023-01-29T06:41:21.407Z,41.50
2023-01-29T06:42:21.401Z,41.50
2023-01-29T06:43:21.378Z,41.40
2023-01-29T06:44:21.392Z,41.00
2023-01-29T06:45:21.384Z,40.60
2023-01-29T06:46:21.360Z,40.90
2023-01-29T06:47:21.336Z,40.90
2023-01-29T06:48:21.327Z,40.00
2023-01-29T06:49:21.325Z,39.70
2023-01-29T06:50:21.305Z,40.20
2023-01-29T06:51:21.298Z,40.20
2023-01-29T06:52:21.296Z,38.60
2023-01-29T06:53:21.281Z,38.40
2023-01-29T06:54:21.281Z,39.20
2023-01-29T06:55:21.252Z,38.70
2023-01-29T06:56:21.253Z,38.90
2023-01-29T06:57:21.226Z,39.70
2023-01-29T06:58:21.239Z,39.60
2023-01-29T06:59:21.216Z,39.80
2023-01-29T07:00:21.215Z,40.40
2023-01-29T07:01:36.873Z,38.80
2023-01-29T07:02:22.225Z,39.00
2023-01-29T07:03:21.183Z,39.70
2023-01-29T07:04:21.178Z,39.10
2023-01-29T07:05:21.166Z,40.40
2023-01-29T07:06:21.169Z,39.30
2023-01-29T07:07:21.138Z,38.70
2023-01-29T07:08:21.124Z,40.70
2023-01-29T07:09:21.121Z,38.60
2023-01-29T07:10:21.113Z,41.20
2023-01-29T07:11:21.090Z,40.50
2023-01-29T07:12:21.085Z,40.40
2023-01-29T07:13:21.067Z,39.80
2023-01-29T07:14:21.075Z,41.90
2023-01-29T07:15:21.055Z,39.50
2023-01-29T07:16:21.071Z,42.20
2023-01-29T07:17:21.025Z,43.50
2023-01-29T07:18:21.023Z,39.50
2023-01-29T07:19:21.023Z,51.10
2023-01-29T07:20:21.005Z,47.80
2023-01-29T07:21:21.005Z,45.90
2023-01-29T07:22:20.988Z,42.00
2023-01-29T07:23:21.076Z,41.20
2023-01-29T07:24:21.022Z,40.90
2023-01-29T07:25:20.960Z,42.00
2023-01-29T07:26:20.947Z,40.70
2023-01-29T07:27:20.922Z,45.40
2023-01-29T07:28:20.927Z,50.40
2023-01-29T07:29:21.069Z,41.80
2023-01-29T07:30:20.910Z,41.10
2023-01-29T07:31:21.013Z,41.10
2023-01-29T07:32:20.939Z,39.40
2023-01-29T07:33:20.877Z,40.90
2023-01-29T07:34:20.898Z,39.40
2023-01-29T07:35:20.845Z,39.50
2023-01-29T07:36:20.835Z,40.10
2023-01-29T07:37:20.825Z,45.30
2023-01-29T07:38:20.832Z,40.40
2023-01-29T07:39:20.815Z,41.20
2023-01-29T07:40:20.797Z,38.90
2023-01-29T07:41:20.806Z,40.90
2023-01-29T07:42:20.777Z,40.00
2023-01-29T07:43:20.799Z,41.40
2023-01-29T07:44:20.836Z,40.50
2023-01-29T07:45:20.747Z,40.60
2023-01-29T07:46:20.749Z,40.60
2023-01-29T07:47:20.726Z,40.70
2023-01-29T07:48:20.722Z,40.20
2023-01-29T07:49:20.735Z,42.30
2023-01-29T07:50:20.694Z,43.40
2023-01-29T07:51:20.673Z,41.90
2023-01-29T07:52:22.286Z,41.10
2023-01-29T07:53:20.670Z,40.30
2023-01-29T07:54:20.663Z,42.50
2023-01-29T07:55:20.635Z,39.70
2023-01-29T07:56:20.647Z,41.20
2023-01-29T07:57:20.614Z,40.80
2023-01-29T07:58:20.617Z,41.10
2023-01-29T07:59:20.621Z,40.60
2023-01-29T08:00:20.585Z,39.90
2023-01-29T08:01:20.634Z,41.40
2023-01-29T08:02:20.678Z,39.60
2023-01-29T08:03:20.564Z,39.40
2023-01-29T08:04:20.599Z,42.10
2023-01-29T08:05:20.540Z,42.10
2023-01-29T08:06:20.518Z,40.90
2023-01-29T08:07:20.535Z,40.50
2023-01-29T08:08:20.598Z,39.60
2023-01-29T08:09:20.556Z,40.80
2023-01-29T08:10:20.647Z,39.60
2023-01-29T08:11:20.473Z,41.80
2023-01-29T08:12:20.465Z,38.90
2023-01-29T08:13:20.456Z,46.40
2023-01-29T08:14:20.455Z,45.40
2023-01-29T08:15:20.425Z,39.30
2023-01-29T08:16:20.487Z,40.60
2023-01-29T08:17:20.407Z,38.30
2023-01-29T08:18:20.416Z,39.00
2023-01-29T08:19:20.429Z,41.00
2023-01-29T08:20:20.481Z,39.10
2023-01-29T08:21:20.387Z,41.10
2023-01-29T08:22:20.356Z,43.20
2023-01-29T08:23:20.358Z,37.60
2023-01-29T08:24:20.411Z,42.60
2023-01-29T08:25:20.325Z,41.90
2023-01-29T08:26:20.366Z,40.90
2023-01-29T08:27:20.325Z,37.10
2023-01-29T08:28:20.491Z,36.90
2023-01-29T08:29:20.306Z,36.40
2023-01-29T08:30:20.267Z,36.20
2023-01-29T08:31:20.270Z,43.00
2023-01-29T08:32:20.271Z,41.30
2023-01-29T08:33:29.867Z,42.50
2023-01-29T08:34:21.256Z,38.20
2023-01-29T08:35:20.744Z,37.10
2023-01-29T08:36:20.206Z,42.30
2023-01-29T08:37:20.209Z,37.40
2023-01-29T08:38:20.245Z,35.20
2023-01-29T08:39:20.196Z,37.70
2023-01-29T08:40:20.317Z,36.50
2023-01-29T08:41:20.161Z,40.90
2023-01-29T08:42:20.237Z,36.20
2023-01-29T08:43:20.138Z,42.30
2023-01-29T08:44:20.155Z,37.60
2023-01-29T08:45:20.122Z,42.90
2023-01-29T08:46:20.134Z,35.90
2023-01-29T08:47:20.107Z,36.70
2023-01-29T08:48:20.092Z,41.80
2023-01-29T08:49:20.097Z,36.30
2023-01-29T08:50:20.353Z,42.10
2023-01-29T08:51:20.047Z,49.50
2023-01-29T08:52:20.066Z,37.50
2023-01-29T08:53:20.036Z,42.40
2023-01-29T08:54:20.023Z,38.20
2023-01-29T08:55:20.014Z,50.70
2023-01-29T08:56:20.006Z,40.10
2023-01-29T08:57:19.996Z,36.80
2023-01-29T08:58:19.994Z,46.70
2023-01-29T08:59:20.008Z,40.30
2023-01-29T09:00:19.965Z,37.40
2023-01-29T09:01:20.009Z,40.80
2023-01-29T09:02:19.995Z,38.40
2023-01-29T09:03:19.928Z,38.00
2023-01-29T09:04:19.938Z,39.50
2023-01-29T09:05:21.366Z,43.60
2023-01-29T09:06:19.910Z,39.00
2023-01-29T09:07:19.895Z,48.70
2023-01-29T09:08:19.897Z,46.50
2023-01-29T09:09:19.883Z,39.20
2023-01-29T09:10:19.876Z,36.40
2023-01-29T09:11:19.848Z,55.20
2023-01-29T09:12:19.845Z,37.50
2023-01-29T09:13:19.838Z,38.60
2023-01-29T09:14:19.821Z,37.30
2023-01-29T09:15:20.046Z,37.50
2023-01-29T09:16:19.830Z,35.90
2023-01-29T09:17:19.799Z,36.80
2023-01-29T09:18:20.013Z,37.60
2023-01-29T09:19:19.788Z,36.30
2023-01-29T09:20:19.761Z,36.70
2023-01-29T09:21:19.755Z,36.80
2023-01-29T09:22:19.740Z,40.00
2023-01-29T09:23:19.715Z,45.60
2023-01-29T09:24:19.726Z,41.00
2023-01-29T09:25:19.814Z,40.70
2023-01-29T09:26:19.724Z,56.90
2023-01-29T09:27:19.712Z,61.40
2023-01-29T09:28:19.687Z,62.00
2023-01-29T09:29:19.676Z,48.40
2023-01-29T09:30:19.651Z,50.30
2023-01-29T09:31:19.816Z,48.90
2023-01-29T09:32:31.868Z,59.50
2023-01-29T09:33:20.617Z,45.40
2023-01-29T09:34:19.607Z,36.70
2023-01-29T09:35:20.016Z,40.30
2023-01-29T09:36:19.864Z,45.70
2023-01-29T09:37:21.094Z,46.10
2023-01-29T09:38:19.638Z,44.10
2023-01-29T09:39:20.009Z,43.20
2023-01-29T09:40:19.806Z,52.70
2023-01-29T09:41:19.626Z,48.90
2023-01-29T09:42:19.914Z,40.30
2023-01-29T09:43:19.795Z,42.00
2023-01-29T09:44:19.777Z,39.60
2023-01-29T09:45:19.752Z,40.70
2023-01-29T09:46:19.715Z,40.40
2023-01-29T09:47:19.637Z,42.20
2023-01-29T09:48:19.627Z,45.50
2023-01-29T09:49:19.460Z,48.90
2023-01-29T09:50:20.397Z,38.90
2023-01-29T09:51:19.427Z,44.70
2023-01-29T09:52:19.980Z,45.30
2023-01-29T09:53:19.644Z,41.60
2023-01-29T09:54:19.717Z,39.10
2023-01-29T09:55:19.407Z,38.70
2023-01-29T09:56:19.475Z,42.30
2023-01-29T09:57:19.420Z,36.30
2023-01-29T09:58:19.368Z,42.40
2023-01-29T09:59:19.354Z,44.50
2023-01-29T10:00:19.393Z,41.00
2023-01-29T10:01:19.401Z,38.70
2023-01-29T10:02:19.434Z,44.20
2023-01-29T10:03:19.308Z,38.70
2023-01-29T10:04:19.363Z,48.80
2023-01-29T10:05:19.743Z,44.90
2023-01-29T10:06:19.282Z,47.90
2023-01-29T10:07:19.267Z,40.00
2023-01-29T10:08:19.267Z,38.60
2023-01-29T10:09:19.254Z,46.20
2023-01-29T10:10:19.288Z,41.50
2023-01-29T10:11:19.220Z,43.80
2023-01-29T10:12:19.228Z,44.10
2023-01-29T10:13:19.202Z,43.60
2023-01-29T10:14:19.216Z,45.10
2023-01-29T10:15:19.319Z,40.40
2023-01-29T10:16:19.158Z,45.20
2023-01-29T10:17:19.201Z,62.10
2023-01-29T10:18:19.138Z,40.50
2023-01-29T10:19:19.138Z,58.20
2023-01-29T10:20:19.148Z,46.60
2023-01-29T10:21:19.110Z,45.20
2023-01-29T10:22:19.110Z,46.20
2023-01-29T10:23:19.107Z,40.10
2023-01-29T10:24:19.077Z,42.80
2023-01-29T10:25:19.530Z,40.70
2023-01-29T10:26:19.071Z,35.10
2023-01-29T10:27:19.091Z,36.80
2023-01-29T10:28:19.040Z,36.10
2023-01-29T10:29:19.031Z,33.50
2023-01-29T10:30:19.028Z,40.20
2023-01-29T10:31:19.085Z,37.30
2023-01-29T10:32:19.035Z,35.40
2023-01-29T10:33:18.989Z,34.50
2023-01-29T10:34:18.995Z,34.20
2023-01-29T10:35:18.992Z,37.80
2023-01-29T10:36:18.948Z,37.90
2023-01-29T10:37:19.034Z,33.30
2023-01-29T10:38:18.949Z,36.50
2023-01-29T10:39:18.932Z,37.40
2023-01-29T10:40:18.933Z,36.90
2023-01-29T10:41:18.899Z,35.60
2023-01-29T10:42:18.889Z,41.80
2023-01-29T10:43:18.897Z,38.00
2023-01-29T10:44:18.868Z,33.60
2023-01-29T10:45:19.359Z,33.00
2023-01-29T10:46:18.862Z,33.30
2023-01-29T10:47:18.877Z,33.20
2023-01-29T10:48:18.842Z,34.60
2023-01-29T10:49:18.814Z,32.90
2023-01-29T10:50:18.855Z,32.60
2023-01-29T10:51:18.789Z,33.00
2023-01-29T10:52:18.780Z,33.10
2023-01-29T10:53:18.820Z,32.80
2023-01-29T10:54:18.760Z,31.80
2023-01-29T10:55:19.042Z,32.50
2023-01-29T10:56:22.969Z,30.70
2023-01-29T10:57:18.729Z,32.30
2023-01-29T10:58:18.722Z,32.20
2023-01-29T10:59:18.714Z,46.10
2023-01-29T11:00:18.899Z,32.10
2023-01-29T11:01:18.728Z,32.50
2023-01-29T11:02:18.717Z,40.20
2023-01-29T11:03:27.316Z,31.00
2023-01-29T11:04:19.660Z,37.90
2023-01-29T11:05:18.889Z,40.20
2023-01-29T11:06:18.633Z,34.10
2023-01-29T11:07:18.740Z,32.50
2023-01-29T11:08:18.643Z,41.30
2023-01-29T11:09:18.602Z,33.40
2023-01-29T11:10:18.943Z,40.30
2023-01-29T11:11:18.582Z,31.90
2023-01-29T11:12:20.172Z,30.20
2023-01-29T11:13:18.570Z,31.20
2023-01-29T11:14:18.553Z,30.00
2023-01-29T11:15:18.542Z,28.60
2023-01-29T11:16:18.532Z,29.90
2023-01-29T11:17:18.597Z,31.80
2023-01-29T11:18:18.514Z,29.30
2023-01-29T11:19:18.500Z,30.50
2023-01-29T11:20:18.992Z,29.30
2023-01-29T11:21:18.473Z,29.40
2023-01-29T11:22:18.476Z,34.50
2023-01-29T11:23:18.455Z,34.70
2023-01-29T11:24:18.442Z,33.30
2023-01-29T11:25:18.443Z,30.70
2023-01-29T11:26:18.480Z,31.40
2023-01-29T11:27:18.413Z,29.40
2023-01-29T11:28:18.413Z,31.20
2023-01-29T11:29:18.418Z,30.30
2023-01-29T11:30:19.010Z,30.20
2023-01-29T11:31:18.523Z,32.10
2023-01-29T11:32:18.366Z,32.70
2023-01-29T11:33:18.385Z,33.80
2023-01-29T11:34:18.332Z,33.60
2023-01-29T11:35:18.352Z,32.80
2023-01-29T11:36:18.334Z,32.10
2023-01-29T11:37:18.325Z,34.10
2023-01-29T11:38:18.318Z,30.80
2023-01-29T11:39:18.286Z,30.80
2023-01-29T11:40:18.594Z,31.20
2023-01-29T11:41:18.266Z,30.00
2023-01-29T11:42:19.705Z,39.90
2023-01-29T11:43:18.271Z,39.80
2023-01-29T11:44:18.245Z,35.30
2023-01-29T11:45:18.235Z,34.50
2023-01-29T11:46:18.246Z,39.60
2023-01-29T11:47:18.193Z,34.30
2023-01-29T11:48:18.218Z,32.90
2023-01-29T11:49:20.887Z,30.60
2023-01-29T11:50:18.715Z,30.70
2023-01-29T11:51:18.153Z,29.60
2023-01-29T11:52:18.175Z,31.00
2023-01-29T11:53:18.144Z,30.60
2023-01-29T11:54:18.140Z,37.70
2023-01-29T11:55:18.128Z,30.00
2023-01-29T11:56:18.135Z,52.10
2023-01-29T11:57:19.402Z,55.80
2023-01-29T11:58:18.093Z,46.30
2023-01-29T11:59:18.076Z,34.90
2023-01-29T12:00:18.423Z,38.00
2023-01-29T12:01:18.046Z,42.30
2023-01-29T12:02:18.046Z,31.30
2023-01-29T12:03:18.030Z,54.30
2023-01-29T12:04:18.017Z,42.70
2023-01-29T12:05:18.019Z,30.60
2023-01-29T12:06:17.996Z,33.80
2023-01-29T12:07:17.976Z,52.60
2023-01-29T12:08:17.977Z,34.50
2023-01-29T12:09:17.975Z,30.70
2023-01-29T12:10:18.325Z,28.90
2023-01-29T12:11:17.998Z,28.60
2023-01-29T12:12:17.950Z,27.30
2023-01-29T12:13:17.922Z,30.30
2023-01-29T12:14:17.918Z,30.20
2023-01-29T12:15:17.912Z,30.20
2023-01-29T12:16:18.018Z,29.50
2023-01-29T12:17:17.994Z,29.90
2023-01-29T12:18:17.871Z,28.50
2023-01-29T12:19:17.870Z,27.80
2023-01-29T12:20:18.119Z,29.90
2023-01-29T12:21:17.844Z,28.60
2023-01-29T12:22:17.835Z,29.30
2023-01-29T12:23:17.836Z,29.80
2023-01-29T12:24:17.799Z,28.40
2023-01-29T12:25:17.803Z,27.70
2023-01-29T12:26:17.858Z,28.40
2023-01-29T12:27:17.771Z,27.60
2023-01-29T12:28:17.823Z,29.30
2023-01-29T12:29:17.751Z,29.50
2023-01-29T12:30:18.167Z,27.70
2023-01-29T12:31:17.723Z,29.40
2023-01-29T12:32:17.715Z,29.70
2023-01-29T12:33:17.694Z,27.90
2023-01-29T12:34:17.770Z,30.10
2023-01-29T12:35:17.692Z,28.40
2023-01-29T12:36:17.717Z,28.20
2023-01-29T12:37:17.657Z,26.60
2023-01-29T12:38:17.661Z,26.90
2023-01-29T12:39:17.639Z,27.60
2023-01-29T12:40:17.946Z,26.80
2023-01-29T12:41:17.616Z,27.80
2023-01-29T12:42:17.671Z,28.10
2023-01-29T12:43:17.595Z,28.50
2023-01-29T12:44:17.585Z,28.00
2023-01-29T12:45:17.609Z,26.40
2023-01-29T12:46:17.565Z,27.40
2023-01-29T12:47:17.559Z,27.90
2023-01-29T12:48:17.545Z,27.90
2023-01-29T12:49:17.548Z,28.20
2023-01-29T12:50:17.972Z,27.40
2023-01-29T12:51:17.521Z,28.30
2023-01-29T12:52:17.501Z,28.20